Flight Track Log - Related Links

Times and Time Zones

All times are in EDT time to prevent confusion due to time zone crossing. See the CHQ6046 flight status page for this flight to view local times or setup timezone preferences in your user account.

Time Position Orientation Groundspeed Altitude Reporting Facility
EDT Latitude Longitude Course Direction KTS MPH feet Rate Location/Type
Thu 07:09:05 AM 35.1872 -80.9536 179° South 170 196 1,400  Level Atlanta Center
Thu 07:09:35 AM 35.1656 -80.9533 222° Southwest 178 205 2,500 2,057 Climbing FAA TRACON SMA TRACON (SMA)
Thu 07:10:15 AM 35.1378 -80.9839 269° West 208 239 3,800 1,875 Climbing FAA TRACON SMA TRACON (SMA)
Thu 07:10:55 AM 35.1372 -81.0317 342° North 231 266 5,000 2,100 Climbing FAA TRACON SMA TRACON (SMA)
Thu 07:11:35 AM 35.1753 -81.0467 21° North 226 260 6,600 1,899 Climbing FAA TRACON SMA TRACON (SMA)
Thu 07:12:14 AM 35.2175 -81.0264 22° Northeast 256 295 7,500 1,875 Climbing FAA TRACON SMA TRACON (SMA)
Thu 07:12:55 AM 35.2650 -81.0028 24° Northeast 270 311 9,100 2,222 Climbing FAA TRACON SMA TRACON (SMA)
Thu 07:13:35 AM 35.3136 -80.9758 23° Northeast 274 315 10,500 1,875 Climbing FAA TRACON SMA TRACON (SMA)
Thu 07:14:15 AM 35.3647 -80.9489 17° North 285 328 11,600 1,425 Climbing FAA TRACON SMA TRACON (SMA)
Thu 07:14:55 AM 35.4161 -80.9292 North 308 354 12,400 1,650 Climbing FAA TRACON SMA TRACON (SMA)
Thu 07:15:35 AM 35.4769 -80.9186 North 316 364 13,800 1,747 Climbing FAA TRACON SMA TRACON (SMA)
Thu 07:16:14 AM 35.5344 -80.9106 North 321 369 14,700 1,350 Climbing FAA TRACON SMA TRACON (SMA)
Thu 07:16:55 AM 35.5961 -80.9028 360° North 328 377 15,600 1,407 Climbing FAA TRACON SMA TRACON (SMA)
Thu 07:17:35 AM 35.6625 -80.9022 329° Northwest 341 392 16,600 1,500 Climbing FAA TRACON SMA TRACON (SMA)
Thu 07:18:15 AM 35.7192 -80.9444 307° West 348 400 17,600 1,425 Climbing FAA TRACON SMA TRACON (SMA)
Thu 07:18:55 AM 35.7564 -81.0056 307° West 361 415 18,500 1,725 Climbing FAA TRACON SMA TRACON (SMA)
Thu 07:19:35 AM 35.7972 -81.0717 307° West 353 406 19,900 1,975 Climbing FAA TRACON SMA TRACON (SMA)
Thu 07:20:14 AM 35.8381 -81.1381 307° West 352 405 21,100 1,500 Climbing FAA TRACON SMA TRACON (SMA)
Thu 07:20:55 AM 35.8750 -81.1989 307° West 353 406 21,900 667 Climbing FAA TRACON SMA TRACON (SMA)
Thu 07:21:35 AM 35.9175 -81.2686 307° West 366 421 22,000 75 Climbing FAA TRACON SMA TRACON (SMA)
Thu 07:22:15 AM 35.9644 -81.3447 308° West 399 459 22,000  Level FAA TRACON SMA TRACON (SMA)
Thu 07:23:19 AM 36.0353 -81.4556 306° West 415 478 22,000  Level Atlanta Center
Thu 07:24:19 AM 36.1044 -81.5717 307° West 420 483 22,000  Level Atlanta Center
Thu 07:25:19 AM 36.1756 -81.6878 307° West 425 489 22,000  Level Atlanta Center
Thu 07:26:19 AM 36.2550 -81.8192 306° West 420 483 22,000  Level Atlanta Center
Thu 07:27:19 AM 36.3153 -81.9233 306° West 426 490 22,000  Level Atlanta Center
Thu 07:28:19 AM 36.3861 -82.0425 307° West 419 482 22,000  Level Atlanta Center
Thu 07:29:19 AM 36.4569 -82.1594 306° West 419 482 22,000  Level Atlanta Center
Thu 07:30:19 AM 36.5339 -82.2894 306° West 424 488 22,000  Level Atlanta Center
Thu 07:31:19 AM 36.6042 -82.4094 307° West 424 488 22,000  Level Atlanta Center
Thu 07:33:43 AM 36.7650 -82.6808 306° West 422 486 22,000  Level Indianapolis Center
Thu 07:34:43 AM 36.8328 -82.7967 306° West 422 486 22,000  Level Indianapolis Center
Thu 07:35:43 AM 36.9044 -82.9181 306° West 422 486 22,000  Level Indianapolis Center
Thu 07:36:43 AM 36.9800 -83.0475 307° West 427 491 22,000  Level Indianapolis Center
Thu 07:37:43 AM 37.0514 -83.1667 306° West 427 491 22,000  Level Indianapolis Center
Thu 07:38:43 AM 37.1186 -83.2836 306° West 427 491 22,000  Level Indianapolis Center
Thu 07:39:43 AM 37.1875 -83.4033 306° West 427 491 22,000  Level Indianapolis Center
Thu 07:40:43 AM 37.2564 -83.5206 317° Northwest 427 491 22,000  Level Indianapolis Center
Thu 07:41:43 AM 37.3400 -83.6172 357° North 420 483 22,000  Level Indianapolis Center
Thu 07:42:43 AM 37.4567 -83.6250 North 393 452 22,000  Level Indianapolis Center
Thu 07:43:43 AM 37.5756 -83.6042 351° North 432 497 22,000  Level Indianapolis Center
Thu 07:44:43 AM 37.6903 -83.6278 331° Northwest 422 486 22,000  Level Indianapolis Center
Thu 07:45:43 AM 37.7906 -83.6989 330° Northwest 408 470 22,000  Level Indianapolis Center
Thu 07:46:43 AM 37.8925 -83.7728 331° Northwest 420 483 22,000 -600 Level Indianapolis Center
Thu 07:47:43 AM 37.9925 -83.8442 332° Northwest 420 483 20,800 -1,850 Descending Indianapolis Center
Thu 07:48:43 AM 38.0903 -83.9106 329° Northwest 407 468 18,300 -2,300 Descending Indianapolis Center
Thu 07:49:43 AM 38.1819 -83.9797 330° Northwest 390 449 16,200 -1,950 Descending Indianapolis Center
Thu 07:50:43 AM 38.2631 -84.0383 332° Northwest 380 437 14,400 -1,950 Descending Indianapolis Center
Thu 07:51:43 AM 38.3544 -84.1000 326° Northwest 374 430 12,300 -1,750 Descending Indianapolis Center
Thu 07:52:43 AM 38.4356 -84.1694 320° Northwest 363 418 10,900 -700 Descending Indianapolis Center
Thu 07:53:43 AM 38.5061 -84.2444 322° Northwest 342 394 10,900 -250 Level Indianapolis Center
Thu 07:54:43 AM 38.5764 -84.3142 313° West 327 376 10,400 -800 Descending Indianapolis Center
Thu 07:55:43 AM 38.6261 -84.3836 301° West 286 329 9,300 -1,500 Descending Indianapolis Center
Thu 07:56:43 AM 38.6631 -84.4639 279° West 263 303 7,400 -1,600 Descending Indianapolis Center
Thu 07:57:43 AM 38.6747 -84.5544 278° West 246 283 6,100 -850 Descending Indianapolis Center
Thu 07:58:43 AM 38.6825 -84.6292 299° West 239 275 5,700 -450 Descending Indianapolis Center
Thu 07:59:43 AM 38.7069 -84.6853 287° West 194 223 5,200 2,650 Descending Indianapolis Center
Thu 08:00:43 AM 38.7231 -84.7522 285° West 194 223 11,000 2,900 Climbing Indianapolis Center
Thu 08:01:43 AM 38.7369 -84.8189 39° Northeast 194 223 11,000 -3,167 Level Indianapolis Center
Thu 08:03:07 AM 38.9000 -84.6500 360° North 173 199 3,400 -3,583 Descending Cincinnati TRACON
Thu 08:04:07 AM 38.9500 -84.6500 360° North 171 197 2,400 -870 Descending Cincinnati TRACON
Thu 08:05:25 AM 39.0167 -84.6500 322° Northwest 150 173 1,400 -769 Descending Cincinnati TRACON
Thu 08:12:32 AM 39.0333 -84.6667 322° Northwest  Level FlightAware Approximate

Login

Don't have an account? Register now (free) for customized features, flight alerts, and more!